Time;durP1;ratioP1;P1;durP2;ratioP2;P2;SDS_P1;SDS_P2;PMS_P1;PMS_P2;Temp;Humidity;BMP_temperature;BMP_pressure;BME280_temperature;BME280_humidity;BME280_pressure;Samples;Min_cycle;Max_cycle;Signal;HPM_P1;HPM_P2
2022/03/03 00:01:37;;;;;;;;;;;;;;;2.73;54.60;95089.84;5136535;27;1015;-49
2022/03/03 00:04:04;;;;;;;;;;;;;;;2.63;55.34;95083.59;5136358;27;1083;-49
2022/03/03 00:06:30;;;;;;;;;;;;;;;2.63;54.44;95083.59;5136914;27;1016;-49
2022/03/03 00:08:56;;;;;;;;;;;;;;;2.60;54.87;95087.31;5136321;27;1032;-49
2022/03/03 00:11:22;;;;;;;;;;;;;;;2.60;54.32;95082.03;5136861;27;1039;-49
2022/03/03 00:13:48;;;;;;;;;;;;;;;2.59;54.71;95072.41;5136319;27;971;-49
2022/03/03 00:16:14;;;;;;;;;;;;;;;2.65;54.54;95077.22;5136570;27;1902;-49
2022/03/03 00:18:40;;;;;;;;;;;;;;;2.62;54.32;95076.63;5136215;27;1150;-49
2022/03/03 00:21:06;;;;;;;;;;;;;;;2.57;54.92;95070.84;5136496;27;969;-49
2022/03/03 00:23:32;;;;;;;;;;;;;;;2.66;54.53;95067.53;5136074;27;1063;-49
2022/03/03 00:25:59;;;;;;;;;;;;;;;2.61;54.53;95064.38;5136356;27;1051;-49
2022/03/03 00:28:25;;;;;;;;;;;;;;;2.66;54.63;95068.38;5136021;27;1020;-49
2022/03/03 00:30:51;;;;;;;;;;;;;;;2.63;54.15;95071.22;5136110;27;1003;-49
2022/03/03 00:33:17;;;;;;;;;;;;;;;2.65;54.06;95069.31;5136218;27;1019;-49
2022/03/03 00:35:43;;;;;;;;;;;;;;;2.57;54.32;95071.69;5135887;27;1910;-49
2022/03/03 00:38:09;;;;;;;;;;;;;;;2.58;54.10;95072.53;5135984;27;1228;-49
2022/03/03 00:40:35;;;;;;;;;;;;;;;2.70;53.71;95063.69;5136220;27;1550;-49
2022/03/03 00:43:02;;;;;;;;;;;;;;;2.73;53.45;95059.03;5135800;27;1055;-49
2022/03/03 00:45:28;;;;;;;;;;;;;;;2.74;53.39;95065.16;5135758;27;1091;-49
2022/03/03 00:47:54;;;;;;;;;;;;;;;2.69;53.40;95067.28;5135538;27;1059;-49
2022/03/03 00:50:19;;;;;;;;;;;;;;;2.64;54.16;95058.88;5135637;27;1212;-49
2022/03/03 00:52:45;;;;;;;;;;;;;;;2.69;53.17;95062.00;5115212;28;1025;-49
2022/03/03 00:55:11;;;;;;;;;;;;;;;2.69;53.25;95062.00;5115255;28;1910;-49
2022/03/03 00:57:37;;;;;;;;;;;;;;;2.68;53.04;95055.06;5115130;28;960;-49
2022/03/03 01:00:05;;;;;;;;;;;;;;;2.64;53.62;95058.88;5115207;28;957;-49
2022/03/03 01:02:31;;;;;;;;;;;;;;;2.65;53.61;95050.81;5114794;28;1246;-49
2022/03/03 01:04:57;;;;;;;;;;;;;;;2.63;53.70;95047.47;5115196;28;956;-49
2022/03/03 01:07:23;;;;;;;;;;;;;;;2.58;53.97;95048.75;5115017;28;1007;-49
2022/03/03 01:09:49;;;;;;;;;;;;;;;2.61;53.98;95048.53;5114614;28;1847;-49
2022/03/03 01:12:15;;;;;;;;;;;;;;;2.66;54.36;95052.53;5114731;28;1023;-49
2022/03/03 01:14:41;;;;;;;;;;;;;;;2.58;54.15;95054.91;5114485;28;1987;-49
2022/03/03 01:17:07;;;;;;;;;;;;;;;2.57;53.71;95045.28;5114821;28;1024;-49
2022/03/03 01:19:33;;;;;;;;;;;;;;;2.53;54.37;95051.75;5114484;28;1122;-49
2022/03/03 01:21:59;;;;;;;;;;;;;;;2.58;53.54;95041.72;5114756;28;1051;-49
2022/03/03 01:24:25;;;;;;;;;;;;;;;2.60;54.12;95042.44;5114663;28;1019;-49
2022/03/03 01:26:51;;;;;;;;;;;;;;;2.68;53.80;95044.50;5114776;28;1035;-49
2022/03/03 01:29:17;;;;;;;;;;;;;;;2.69;53.62;95040.88;5114413;28;1043;-49
2022/03/03 01:31:43;;;;;;;;;;;;;;;2.71;53.82;95036.31;5114384;28;1032;-49
2022/03/03 01:34:09;;;;;;;;;;;;;;;2.83;53.17;95029.28;5114213;28;1043;-49
2022/03/03 01:36:35;;;;;;;;;;;;;;;2.79;53.31;95020.75;5114256;28;1913;-49
2022/03/03 01:39:02;;;;;;;;;;;;;;;2.71;53.64;95016.06;5114064;28;1091;-49
2022/03/03 01:41:28;;;;;;;;;;;;;;;2.76;53.41;95020.97;5114398;28;960;-49
2022/03/03 01:43:54;;;;;;;;;;;;;;;2.72;53.93;95011.63;5113946;28;1075;-49
2022/03/03 01:46:20;;;;;;;;;;;;;;;2.70;53.50;95010.91;5114425;28;988;-49
2022/03/03 01:48:46;;;;;;;;;;;;;;;2.61;53.96;95012.44;5114099;28;968;-49
2022/03/03 01:51:12;;;;;;;;;;;;;;;2.68;53.73;95010.19;5121713;27;1184;-49
2022/03/03 01:53:38;;;;;;;;;;;;;;;2.64;54.24;95009.56;5134634;27;991;-49
2022/03/03 01:56:05;;;;;;;;;;;;;;;2.74;53.38;95001.78;5134723;27;1909;-49
2022/03/03 01:58:31;;;;;;;;;;;;;;;2.79;53.06;95010.19;5134499;27;1864;-49
2022/03/03 02:00:57;;;;;;;;;;;;;;;2.73;53.92;95006.22;5134491;27;1030;-49
2022/03/03 02:03:23;;;;;;;;;;;;;;;2.65;54.12;95003.31;5134399;27;1229;-49
2022/03/03 02:05:49;;;;;;;;;;;;;;;2.64;54.18;95003.44;5134436;27;1008;-49
2022/03/03 02:08:15;;;;;;;;;;;;;;;2.67;54.31;95006.66;5134628;27;1075;-49
2022/03/03 02:10:41;;;;;;;;;;;;;;;2.70;53.82;95002.97;5134239;27;1064;-49
2022/03/03 02:13:08;;;;;;;;;;;;;;;2.55;54.54;95002.34;5134312;27;1067;-49
2022/03/03 02:15:34;;;;;;;;;;;;;;;2.71;53.63;95002.00;5133990;27;1905;-49
2022/03/03 02:18:00;;;;;;;;;;;;;;;2.67;54.33;95005.84;5133566;27;1087;-49
2022/03/03 02:20:27;;;;;;;;;;;;;;;2.52;55.39;95005.19;5134363;28;1039;-49
2022/03/03 02:22:54;;;;;;;;;;;;;;;2.48;55.60;94995.84;5134495;27;990;-49
2022/03/03 02:25:21;;;;;;;;;;;;;;;2.58;56.10;95001.25;5134227;27;1040;-49
2022/03/03 02:27:47;;;;;;;;;;;;;;;2.53;55.53;94999.81;5134166;27;1032;-49
2022/03/03 02:30:13;;;;;;;;;;;;;;;2.65;55.23;94998.03;5134271;27;1111;-49
2022/03/03 02:32:40;;;;;;;;;;;;;;;2.63;55.88;94996.47;5134162;27;1052;-49
2022/03/03 02:35:06;;;;;;;;;;;;;;;2.51;55.98;94991.16;5134138;27;1913;-49
2022/03/03 02:37:36;;;;;;;;;;;;;;;2.49;56.29;95006.28;5134395;27;1032;-49
2022/03/03 02:40:03;;;;;;;;;;;;;;;2.43;56.02;94993.56;5134214;27;1023;-49
2022/03/03 02:42:29;;;;;;;;;;;;;;;2.42;56.09;95002.41;5133999;27;1002;-49
2022/03/03 02:44:55;;;;;;;;;;;;;;;2.42;56.40;95007.69;5133787;28;1057;-49
2022/03/03 02:47:21;;;;;;;;;;;;;;;2.46;56.38;95009.13;5134268;28;1038;-49
2022/03/03 02:49:47;;;;;;;;;;;;;;;2.44;56.00;95005.78;5133950;28;1106;-49
2022/03/03 02:52:13;;;;;;;;;;;;;;;2.57;55.72;94999.59;5117822;28;1275;-49
2022/03/03 02:54:39;;;;;;;;;;;;;;;2.65;55.57;95005.13;5113351;28;1913;-49
2022/03/03 02:59:53;;;;;;;;;;;;;;;2.50;55.07;95000.06;5113022;28;1043;-49
2022/03/03 03:02:19;;;;;;;;;;;;;;;2.43;55.35;95000.59;5113545;28;1244;-49
2022/03/03 03:04:45;;;;;;;;;;;;;;;2.47;55.52;95002.09;5113400;28;963;-49
2022/03/03 03:07:11;;;;;;;;;;;;;;;2.43;55.76;95004.09;5113579;28;1047;-49
2022/03/03 03:09:37;;;;;;;;;;;;;;;2.47;56.02;95010.84;5113244;28;1091;-49
2022/03/03 03:12:04;;;;;;;;;;;;;;;2.52;55.75;94995.50;5113154;28;995;-49
2022/03/03 03:14:30;;;;;;;;;;;;;;;2.37;56.28;95001.06;5113284;28;1980;-49
2022/03/03 03:16:56;;;;;;;;;;;;;;;2.38;56.53;95000.97;5113251;28;964;-49
2022/03/03 03:19:22;;;;;;;;;;;;;;;2.47;55.82;94996.81;5113419;28;1035;-49
2022/03/03 03:21:48;;;;;;;;;;;;;;;2.51;56.06;95000.91;5113204;28;970;-49
2022/03/03 03:24:14;;;;;;;;;;;;;;;2.48;56.22;94996.66;5113423;28;1143;-49
2022/03/03 03:26:40;;;;;;;;;;;;;;;2.48;55.70;94993.19;5113079;28;1003;-49
2022/03/03 03:29:06;;;;;;;;;;;;;;;2.60;56.00;94994.91;5113150;28;977;-49
2022/03/03 03:31:32;;;;;;;;;;;;;;;2.60;55.77;94991.41;5115738;28;1032;-49
2022/03/03 03:33:58;;;;;;;;;;;;;;;2.58;55.73;95002.13;5116916;28;1031;-49
2022/03/03 03:36:24;;;;;;;;;;;;;;;2.56;55.85;94989.97;5116740;28;1914;-49
2022/03/03 03:38:50;;;;;;;;;;;;;;;2.58;55.88;94990.69;5115698;28;1054;-49
2022/03/03 03:41:16;;;;;;;;;;;;;;;2.51;55.69;94987.69;5115299;28;968;-48
2022/03/03 03:43:42;;;;;;;;;;;;;;;2.45;56.36;94983.72;5116236;28;960;-48
2022/03/03 03:46:08;;;;;;;;;;;;;;;2.44;56.54;94989.09;5116188;28;1032;-49
2022/03/03 03:48:34;;;;;;;;;;;;;;;2.46;56.16;94992.47;5116733;28;1239;-48
2022/03/03 03:51:00;;;;;;;;;;;;;;;2.53;55.57;94989.25;5122113;27;1153;-49
2022/03/03 03:53:26;;;;;;;;;;;;;;;2.58;55.28;95001.25;5137037;27;953;-49
2022/03/03 03:55:52;;;;;;;;;;;;;;;2.60;55.88;94996.69;5136810;27;1914;-49
2022/03/03 03:58:18;;;;;;;;;;;;;;;2.67;55.63;94990.84;5136809;27;1054;-49
2022/03/03 04:00:44;;;;;;;;;;;;;;;2.75;55.94;94982.31;5136709;27;964;-49
2022/03/03 04:03:10;;;;;;;;;;;;;;;2.59;56.16;94987.13;5136747;27;1079;-49
2022/03/03 04:05:36;;;;;;;;;;;;;;;2.35;57.34;94988.00;5136850;27;1008;-49
2022/03/03 04:08:02;;;;;;;;;;;;;;;2.15;58.43;94985.06;5136678;27;980;-49
2022/03/03 04:10:28;;;;;;;;;;;;;;;2.09;58.88;94990.78;5135376;27;1036;-49
2022/03/03 04:12:55;;;;;;;;;;;;;;;2.15;58.71;94995.59;5136112;27;1031;-49
2022/03/03 04:15:21;;;;;;;;;;;;;;;2.05;59.42;94991.97;5136517;27;1994;-49
2022/03/03 04:17:48;;;;;;;;;;;;;;;2.25;58.43;94985.19;5136505;27;965;-49
2022/03/03 04:20:15;;;;;;;;;;;;;;;2.20;58.95;94981.22;5136368;27;1052;-49
2022/03/03 04:22:41;;;;;;;;;;;;;;;2.19;58.69;94990.94;5136237;27;1832;-49
2022/03/03 04:25:10;;;;;;;;;;;;;;;2.23;58.80;94994.19;5136312;27;975;-49
2022/03/03 04:27:37;;;;;;;;;;;;;;;2.41;58.04;94995.47;5136048;27;1067;-49
2022/03/03 04:30:04;;;;;;;;;;;;;;;2.33;58.34;94987.25;5136346;27;988;-48
2022/03/03 04:32:30;;;;;;;;;;;;;;;2.18;58.92;94983.97;5136264;27;1018;-49
2022/03/03 04:34:56;;;;;;;;;;;;;;;2.19;58.20;94984.84;5136249;27;1910;-49
2022/03/03 04:37:22;;;;;;;;;;;;;;;2.22;58.72;94977.53;5136016;27;948;-49
2022/03/03 04:39:48;;;;;;;;;;;;;;;2.29;58.71;94977.91;5135924;27;1851;-49
2022/03/03 04:42:14;;;;;;;;;;;;;;;2.13;58.69;94976.41;5135147;27;1034;-49
2022/03/03 04:44:40;;;;;;;;;;;;;;;2.03;59.77;94970.16;5136110;27;1027;-49
2022/03/03 04:47:06;;;;;;;;;;;;;;;1.91;59.70;94971.03;5135567;27;1020;-48
2022/03/03 04:49:32;;;;;;;;;;;;;;;1.83;59.80;94978.69;5135825;27;1020;-49
2022/03/03 04:51:58;;;;;;;;;;;;;;;1.82;59.83;94976.97;5121402;27;1747;-49
2022/03/03 04:54:24;;;;;;;;;;;;;;;1.74;60.31;94970.47;5115450;28;972;-49
2022/03/03 04:56:52;;;;;;;;;;;;;;;1.75;61.04;94977.44;5114776;28;1988;-49
2022/03/03 04:59:18;;;;;;;;;;;;;;;1.71;60.51;94978.63;5115239;28;966;-49
2022/03/03 05:01:44;;;;;;;;;;;;;;;1.78;61.15;94975.53;5114968;28;1040;-49
2022/03/03 05:04:10;;;;;;;;;;;;;;;1.94;60.54;94976.94;5114790;28;1130;-48
2022/03/03 05:06:36;;;;;;;;;;;;;;;1.92;60.41;94978.00;5114864;28;1845;-49
2022/03/03 05:09:02;;;;;;;;;;;;;;;1.94;60.56;94976.09;5114807;28;1047;-49
2022/03/03 05:11:28;;;;;;;;;;;;;;;1.90;60.27;94980.75;5114824;28;1060;-49
2022/03/03 05:13:54;;;;;;;;;;;;;;;1.97;59.99;94982.94;5114158;28;1066;-49
2022/03/03 05:16:20;;;;;;;;;;;;;;;2.00;59.67;94980.09;5114985;28;1890;-49
2022/03/03 05:18:46;;;;;;;;;;;;;;;2.00;60.07;94980.09;5115004;28;1060;-49
2022/03/03 05:21:12;;;;;;;;;;;;;;;2.01;60.06;94981.75;5114958;28;1059;-49
2022/03/03 05:23:38;;;;;;;;;;;;;;;1.94;60.51;94978.75;5114560;28;1031;-49
2022/03/03 05:26:04;;;;;;;;;;;;;;;1.90;60.63;94982.56;5114543;28;1042;-49
2022/03/03 05:28:30;;;;;;;;;;;;;;;1.89;60.56;94984.34;5114227;28;1099;-49
2022/03/03 05:30:56;;;;;;;;;;;;;;;2.00;60.34;94982.72;5114604;28;1031;-49
2022/03/03 05:33:22;;;;;;;;;;;;;;;1.99;60.04;94981.84;5114224;28;1020;-49
2022/03/03 05:35:51;;;;;;;;;;;;;;;1.99;61.03;94979.22;5114450;28;2000;-49
2022/03/03 05:38:17;;;;;;;;;;;;;;;1.94;60.91;94982.22;5114415;28;1122;-49
2022/03/03 05:40:43;;;;;;;;;;;;;;;2.07;60.09;94984.78;5114377;28;948;-49
2022/03/03 05:43:09;;;;;;;;;;;;;;;2.12;60.30;94985.25;5114237;28;964;-48
2022/03/03 05:45:36;;;;;;;;;;;;;;;2.19;60.12;94985.66;5114389;28;1044;-49
2022/03/03 05:48:02;;;;;;;;;;;;;;;2.24;60.39;94990.59;5114130;28;1048;-49
2022/03/03 05:50:28;;;;;;;;;;;;;;;2.30;59.31;94993.63;5115335;27;1272;-49
2022/03/03 05:52:55;;;;;;;;;;;;;;;2.20;60.28;94995.28;5133583;27;1060;-49
2022/03/03 05:55:21;;;;;;;;;;;;;;;2.19;60.18;95001.50;5134425;27;1996;-49
2022/03/03 05:57:48;;;;;;;;;;;;;;;2.23;60.37;94997.66;5134274;27;973;-49
2022/03/03 06:00:16;;;;;;;;;;;;;;;2.29;60.15;94996.38;5134497;27;1020;-49
2022/03/03 06:02:49;;;;;;;;;;;;;;;2.28;60.13;95007.91;5134438;27;1218;-49
2022/03/03 06:05:19;;;;;;;;;;;;;;;2.28;60.15;95002.63;5134500;27;1025;-49
2022/03/03 06:07:49;;;;;;;;;;;;;;;2.51;59.82;95011.44;5134198;27;1836;-49
2022/03/03 06:10:20;;;;;;;;;;;;;;;2.59;58.95;95016.16;5134584;27;953;-48
2022/03/03 06:12:47;;;;;;;;;;;;;;;2.69;58.76;95018.00;5133799;27;1039;-49
2022/03/03 06:15:14;;;;;;;;;;;;;;;2.61;58.74;95016.88;5134509;27;1914;-49
2022/03/03 06:17:42;;;;;;;;;;;;;;;2.58;58.62;95011.81;5134303;27;1317;-49
2022/03/03 06:20:08;;;;;;;;;;;;;;;2.61;58.61;95016.88;5134060;27;1980;-49
2022/03/03 06:22:34;;;;;;;;;;;;;;;2.81;58.17;95017.97;5134202;27;1032;-49
2022/03/03 06:25:00;;;;;;;;;;;;;;;2.94;57.29;95026.69;5133934;28;1011;-49
2022/03/03 06:27:29;;;;;;;;;;;;;;;2.90;57.52;95020.78;5134394;28;960;-49
2022/03/03 06:29:56;;;;;;;;;;;;;;;3.01;56.85;95025.22;5134096;28;972;-49
2022/03/03 06:32:22;;;;;;;;;;;;;;;3.00;57.26;95028.84;5134237;27;1881;-49
2022/03/03 06:34:48;;;;;;;;;;;;;;;3.11;57.22;95025.34;5133859;27;2016;-49
2022/03/03 06:37:15;;;;;;;;;;;;;;;3.15;56.22;95025.94;5133987;28;1070;-49
2022/03/03 06:39:41;;;;;;;;;;;;;;;3.28;56.13;95021.41;5133898;27;1012;-49
2022/03/03 06:42:07;;;;;;;;;;;;;;;3.39;56.28;95023.22;5134012;27;1020;-49
2022/03/03 06:44:33;;;;;;;;;;;;;;;3.44;55.85;95013.97;5133939;27;1027;-49
2022/03/03 06:47:00;;;;;;;;;;;;;;;3.74;54.93;95022.19;5134115;27;1039;-49
2022/03/03 06:49:26;;;;;;;;;;;;;;;3.85;54.81;95023.06;5133805;27;1016;-49
2022/03/03 06:51:55;;;;;;;;;;;;;;;3.83;54.90;95016.19;5120648;28;1164;-49
2022/03/03 06:54:21;;;;;;;;;;;;;;;3.75;54.42;95024.72;5113217;28;1096;-49
2022/03/03 06:56:54;;;;;;;;;;;;;;;3.80;54.28;95021.75;5113440;28;1987;-49
2022/03/03 06:59:22;;;;;;;;;;;;;;;3.83;54.51;95024.97;5112036;28;1050;-49
2022/03/03 07:01:49;;;;;;;;;;;;;;;3.91;54.41;95029.66;5112184;28;1041;-49
2022/03/03 07:04:17;;;;;;;;;;;;;;;3.96;54.13;95034.56;5113685;28;1091;-48
2022/03/03 07:06:44;;;;;;;;;;;;;;;4.05;53.40;95032.00;5116357;28;937;-49
2022/03/03 07:09:10;;;;;;;;;;;;;;;4.07;53.37;95029.25;5117333;28;1008;-49
2022/03/03 07:11:40;;;;;;;;;;;;;;;4.05;53.09;95033.81;5117146;28;1024;-49
2022/03/03 07:14:06;;;;;;;;;;;;;;;4.21;52.76;95034.25;5116818;28;983;-49
2022/03/03 07:16:41;;;;;;;;;;;;;;;4.29;52.01;95041.59;5117496;28;1914;-49
2022/03/03 07:19:34;;;;;;;;;;;;;;;4.54;51.61;95035.09;5116687;28;1859;-49
2022/03/03 07:22:18;;;;;;;;;;;;;;;5.35;50.39;95037.13;5115695;28;1085;-49
2022/03/03 07:24:45;;;;;;;;;;;;;;;7.73;45.27;95033.38;5116554;28;1060;-49
2022/03/03 07:27:19;;;;;;;;;;;;;;;9.49;41.50;95041.78;5116822;28;976;-49
2022/03/03 07:29:47;;;;;;;;;;;;;;;10.73;38.66;95041.28;5116546;28;1067;-49
2022/03/03 07:32:17;;;;;;;;;;;;;;;14.37;31.91;95037.41;5116830;27;1133;-49
2022/03/03 07:34:48;;;;;;;;;;;;;;;17.53;28.24;95032.97;5116774;28;1996;-48
2022/03/03 07:37:16;;;;;;;;;;;;;;;19.46;25.48;95039.69;5116680;28;1032;-47
2022/03/03 07:39:45;;;;;;;;;;;;;;;20.38;23.95;95039.16;5116720;28;1027;-48
2022/03/03 07:42:17;;;;;;;;;;;;;;;21.17;22.64;95031.97;5116526;28;1189;-47
2022/03/03 07:44:43;;;;;;;;;;;;;;;21.37;22.51;95044.44;5116645;28;980;-48
2022/03/03 07:47:10;;;;;;;;;;;;;;;22.65;21.15;95039.44;5116492;28;1079;-48
2022/03/03 07:49:37;;;;;;;;;;;;;;;19.38;23.44;95040.78;5116257;28;1087;-47
2022/03/03 07:52:04;;;;;;;;;;;;;;;17.94;25.36;95032.75;5131056;27;1220;-47
2022/03/03 07:54:30;;;;;;;;;;;;;;;14.74;29.42;95036.44;5136798;27;1024;-48
2022/03/03 07:56:57;;;;;;;;;;;;;;;11.69;32.46;95049.66;5136515;27;1909;-47
2022/03/03 07:59:47;;;;;;;;;;;;;;;10.32;35.64;95035.00;5136916;27;2158;-46
2022/03/03 08:02:18;;;;;;;;;;;;;;;10.02;36.57;95033.72;5136882;27;965;-47
2022/03/03 08:04:46;;;;;;;;;;;;;;;10.97;35.44;95039.66;5136337;27;1111;-47
2022/03/03 08:07:14;;;;;;;;;;;;;;;9.24;37.22;95037.25;5136724;27;1051;-47
2022/03/03 08:09:41;;;;;;;;;;;;;;;8.57;39.14;95024.34;5136399;27;1043;-47
2022/03/03 08:12:07;;;;;;;;;;;;;;;8.07;39.92;95030.97;5136229;27;1083;-46
2022/03/03 08:14:34;;;;;;;;;;;;;;;7.95;40.57;95030.34;5136602;27;1021;-46
2022/03/03 08:17:00;;;;;;;;;;;;;;;7.82;40.89;95033.31;5135691;27;2050;-46
2022/03/03 08:19:26;;;;;;;;;;;;;;;7.70;40.62;95028.34;5136436;27;1040;-46
2022/03/03 08:21:52;;;;;;;;;;;;;;;8.05;40.46;95032.94;5136136;27;1082;-47
2022/03/03 08:24:18;;;;;;;;;;;;;;;9.37;38.31;95037.69;5136580;27;1038;-50
2022/03/03 08:26:45;;;;;;;;;;;;;;;10.01;37.64;95037.38;5136155;27;971;-47
2022/03/03 08:29:12;;;;;;;;;;;;;;;10.16;36.89;95035.75;5136276;27;1840;-47
2022/03/03 08:31:39;;;;;;;;;;;;;;;11.45;33.73;95037.97;5136074;27;1027;-47
2022/03/03 08:34:24;;;;;;;;;;;;;;;13.69;31.77;95034.78;5136057;27;1059;-47
2022/03/03 08:36:54;;;;;;;;;;;;;;;13.16;31.69;95028.50;5135744;27;1893;-47
2022/03/03 08:39:23;;;;;;;;;;;;;;;12.73;32.78;95022.78;5136369;27;1052;-46
2022/03/03 08:41:54;;;;;;;;;;;;;;;12.23;32.81;95030.25;5135481;27;1063;-47
2022/03/03 08:44:20;;;;;;;;;;;;;;;11.97;33.40;95026.00;5136108;27;1063;-47
2022/03/03 08:46:47;;;;;;;;;;;;;;;12.63;32.23;95018.47;5135939;27;1039;-47
2022/03/03 08:49:13;;;;;;;;;;;;;;;11.02;34.07;95023.94;5136113;27;1034;-47
2022/03/03 08:51:40;;;;;;;;;;;;;;;9.84;37.25;95021.25;5124288;27;1179;-47
2022/03/03 08:54:06;;;;;;;;;;;;;;;8.70;38.54;95026.66;5115080;28;1042;-47
2022/03/03 08:56:32;;;;;;;;;;;;;;;8.45;39.34;95020.25;5114974;28;1909;-47
2022/03/03 08:58:59;;;;;;;;;;;;;;;8.08;40.01;95021.16;5115146;28;1035;-46
2022/03/03 09:01:25;;;;;;;;;;;;;;;7.62;41.01;95029.91;5114936;28;960;-47
2022/03/03 09:03:51;;;;;;;;;;;;;;;7.55;41.63;95028.81;5114701;28;1221;-47
2022/03/03 09:06:18;;;;;;;;;;;;;;;7.62;41.11;95029.06;5114977;28;1007;-47
2022/03/03 09:08:44;;;;;;;;;;;;;;;7.62;41.01;95029.91;5115221;28;1027;-47
2022/03/03 09:11:10;;;;;;;;;;;;;;;7.66;41.21;95021.63;5114922;28;987;-47
2022/03/03 09:13:36;;;;;;;;;;;;;;;7.68;41.29;95019.66;5114643;28;1075;-47
2022/03/03 09:16:03;;;;;;;;;;;;;;;7.61;41.50;95024.75;5114451;28;1905;-47
2022/03/03 09:18:29;;;;;;;;;;;;;;;7.57;41.79;95032.19;5114973;28;1015;-47
2022/03/03 09:20:55;;;;;;;;;;;;;;;7.59;42.58;95032.03;5114602;28;956;-49
2022/03/03 09:23:21;;;;;;;;;;;;;;;7.54;41.49;95036.94;5114544;28;1092;-49
2022/03/03 09:25:47;;;;;;;;;;;;;;;7.59;42.24;95027.53;5114472;28;964;-49
2022/03/03 09:28:13;;;;;;;;;;;;;;;7.49;42.10;95032.03;5114833;28;1051;-50
2022/03/03 09:30:39;;;;;;;;;;;;;;;7.58;42.33;95041.00;5114676;28;1043;-55
2022/03/03 09:33:05;;;;;;;;;;;;;;;7.62;42.17;95037.88;5114252;28;992;-50
2022/03/03 09:35:32;;;;;;;;;;;;;;;7.55;42.34;95034.16;5114542;28;1906;-50
2022/03/03 09:37:58;;;;;;;;;;;;;;;7.45;43.38;95035.16;5114328;28;1043;-50
2022/03/03 09:40:25;;;;;;;;;;;;;;;7.60;42.17;95031.03;5114200;28;1123;-49
2022/03/03 09:42:55;;;;;;;;;;;;;;;7.64;41.94;95037.75;5113830;28;1028;-48
2022/03/03 09:45:21;;;;;;;;;;;;;;;8.11;41.13;95036.84;5114221;28;1169;-49
2022/03/03 09:47:49;;;;;;;;;;;;;;;8.44;40.68;95039.88;5113884;28;1212;-49
2022/03/03 09:50:15;;;;;;;;;;;;;;;8.51;40.45;95036.47;5114349;28;973;-49
2022/03/03 09:52:42;;;;;;;;;;;;;;;8.43;40.89;95035.56;5134243;27;1157;-50
2022/03/03 09:55:08;;;;;;;;;;;;;;;8.17;40.94;95041.56;5134694;27;1910;-49
2022/03/03 09:57:35;;;;;;;;;;;;;;;8.15;40.57;95043.53;5134574;27;945;-49
2022/03/03 10:00:04;;;;;;;;;;;;;;;8.29;41.70;95036.84;5134426;27;1095;-50
2022/03/03 10:05:55;;;;;;;;;;;;;;;8.40;40.57;95042.84;3440921;28;2193;-47
2022/03/03 10:08:22;;;;;;;;;;;;;;;8.13;40.80;95048.16;5134287;27;1079;-47
2022/03/03 10:10:49;;;;;;;;;;;;;;;7.86;40.95;95039.19;5134215;27;1207;-46
2022/03/03 10:13:17;;;;;;;;;;;;;;;7.58;42.24;95043.66;5134018;27;1035;-46
2022/03/03 10:15:44;;;;;;;;;;;;;;;7.62;41.45;95029.91;5134570;27;1905;-47
2022/03/03 10:18:12;;;;;;;;;;;;;;;8.06;41.73;95025.78;5134338;27;987;-46
2022/03/03 10:20:49;;;;;;;;;;;;;;;8.37;41.73;95027.13;5134593;27;1056;-46
2022/03/03 10:23:17;;;;;;;;;;;;;;;8.48;40.13;95018.13;5134105;27;957;-47
2022/03/03 10:25:44;;;;;;;;;;;;;;;8.53;40.96;95023.81;5134136;27;1008;-46
2022/03/03 10:28:14;;;;;;;;;;;;;;;8.87;39.75;95011.63;5134348;27;1005;-47
2022/03/03 10:30:47;;;;;;;;;;;;;;;9.02;39.06;95018.09;5134331;28;995;-46
2022/03/03 10:33:16;;;;;;;;;;;;;;;9.75;37.95;95017.75;5134124;27;1045;-47
2022/03/03 10:35:56;;;;;;;;;;;;;;;10.68;36.05;95011.56;5134080;27;2004;-47
2022/03/03 10:38:22;;;;;;;;;;;;;;;10.56;35.91;95004.84;5133984;27;1019;-47
2022/03/03 10:40:48;;;;;;;;;;;;;;;10.55;36.90;95006.69;5137629;27;1019;-47
2022/03/03 10:43:14;;;;;;;;;;;;;;;10.55;36.41;95005.84;5137963;27;1091;-47
2022/03/03 10:45:52;;;;;;;;;;;;;;;10.65;36.54;95009.19;5138568;27;956;-48
2022/03/03 10:48:22;;;;;;;;;;;;;;;10.87;35.72;95006.88;5137971;27;1040;-49
2022/03/03 10:50:50;;;;;;;;;;;;;;;10.86;34.98;94998.00;5134150;27;1215;-49
2022/03/03 10:53:17;;;;;;;;;;;;;;;10.81;35.89;94997.66;5117597;27;968;-49
2022/03/03 10:56:06;;;;;;;;;;;;;;;10.89;35.73;95000.38;5117370;28;1898;-49
2022/03/03 10:58:44;;;;;;;;;;;;;;;10.01;36.94;94991.97;5117281;28;1099;-49
2022/03/03 11:01:10;;;;;;;;;;;;;;;9.05;38.34;94988.47;5117403;28;1068;-48
2022/03/03 11:03:36;;;;;;;;;;;;;;;8.90;38.24;94990.84;5117186;28;1974;-49
2022/03/03 11:06:03;;;;;;;;;;;;;;;8.95;38.45;94995.69;5117170;28;1083;-50
2022/03/03 11:08:29;;;;;;;;;;;;;;;8.58;39.13;94988.75;5117366;28;1047;-57
2022/03/03 11:10:55;;;;;;;;;;;;;;;8.57;38.81;94979.91;5117337;28;1088;-49
2022/03/03 11:13:22;;;;;;;;;;;;;;;9.07;38.59;94980.28;5117222;28;976;-49
2022/03/03 11:15:49;;;;;;;;;;;;;;;9.71;37.79;94975.47;5117145;28;1902;-49
2022/03/03 11:18:18;;;;;;;;;;;;;;;9.82;37.29;94975.19;5117227;28;953;-49
2022/03/03 11:20:51;;;;;;;;;;;;;;;9.63;35.85;94976.28;5116972;28;1083;-49
2022/03/03 11:23:17;;;;;;;;;;;;;;;9.93;36.74;94966.06;5117036;28;1040;-49
2022/03/03 11:25:46;;;;;;;;;;;;;;;10.38;37.35;94969.38;5116726;28;1032;-49
2022/03/03 11:28:15;;;;;;;;;;;;;;;10.28;36.21;94961.47;5116947;28;1000;-49
2022/03/03 11:30:45;;;;;;;;;;;;;;;9.81;36.03;94962.84;5117093;27;945;-49
2022/03/03 11:33:17;;;;;;;;;;;;;;;9.48;36.66;94956.53;5116832;28;970;-49
2022/03/03 11:35:49;;;;;;;;;;;;;;;8.99;37.75;94957.06;5116633;28;1905;-49
2022/03/03 11:38:16;;;;;;;;;;;;;;;8.43;38.63;94963.63;5116501;28;1019;-49
2022/03/03 11:40:56;;;;;;;;;;;;;;;8.17;38.33;94967.00;5116800;28;985;-49
2022/03/03 11:43:23;;;;;;;;;;;;;;;8.14;38.80;94952.16;5116491;28;949;-49
2022/03/03 11:45:50;;;;;;;;;;;;;;;8.12;38.80;94946.16;5116748;28;1024;-49
2022/03/03 11:48:19;;;;;;;;;;;;;;;8.05;38.69;94952.22;5116442;28;973;-49
2022/03/03 11:50:45;;;;;;;;;;;;;;;7.80;39.08;94949.31;5119305;28;1156;-49
2022/03/03 11:53:11;;;;;;;;;;;;;;;7.66;39.39;94960.44;5136468;27;1872;-49
2022/03/03 11:55:46;;;;;;;;;;;;;;;7.68;40.41;94950.47;5137108;27;1910;-49
2022/03/03 11:58:14;;;;;;;;;;;;;;;7.56;40.17;94948.00;5136909;27;968;-49
2022/03/03 12:00:40;;;;;;;;;;;;;;;7.73;40.46;94949.03;5137146;27;971;-49
2022/03/03 12:03:07;;;;;;;;;;;;;;;7.76;40.98;94956.75;5136674;27;908;-49
2022/03/03 12:05:33;;;;;;;;;;;;;;;7.75;41.06;94962.22;5136786;27;1099;-51
2022/03/03 12:08:00;;;;;;;;;;;;;;;7.71;41.11;94960.84;5136865;27;999;-49
2022/03/03 12:10:26;;;;;;;;;;;;;;;7.67;40.54;94970.09;5136736;27;969;-49
2022/03/03 12:12:52;;;;;;;;;;;;;;;7.64;40.63;94960.56;5136342;27;1016;-49
2022/03/03 12:15:18;;;;;;;;;;;;;;;7.70;39.39;94965.31;5136481;27;1906;-49
2022/03/03 12:17:46;;;;;;;;;;;;;;;7.63;39.35;94965.06;5136541;27;1019;-49
2022/03/03 12:20:24;;;;;;;;;;;;;;;7.66;39.99;94960.44;5136232;27;1083;-49
2022/03/03 12:22:59;;;;;;;;;;;;;;;7.57;40.96;94965.66;5136347;27;1265;-49
2022/03/03 12:25:48;;;;;;;;;;;;;;;7.61;39.62;94967.03;5136460;27;1033;-49
2022/03/03 12:28:18;;;;;;;;;;;;;;;7.49;40.04;94962.88;5125970;27;1922;-49
2022/03/03 12:30:46;;;;;;;;;;;;;;;7.39;41.13;94962.91;5135382;27;1035;-49
2022/03/03 12:33:22;;;;;;;;;;;;;;;7.32;42.02;94958.34;5136181;27;1094;-49
2022/03/03 12:35:49;;;;;;;;;;;;;;;7.26;41.85;94958.94;5135821;27;2000;-49
2022/03/03 12:38:15;;;;;;;;;;;;;;;7.06;42.90;94969.63;5136007;27;1016;-49
2022/03/03 12:40:41;;;;;;;;;;;;;;;6.99;43.27;94966.69;5136181;27;952;-49
2022/03/03 12:43:12;;;;;;;;;;;;;;;6.87;42.64;94967.00;5135634;27;1028;-49
2022/03/03 12:45:38;;;;;;;;;;;;;;;6.75;42.65;94959.19;5135995;27;981;-49
2022/03/03 12:48:06;;;;;;;;;;;;;;;6.55;42.58;94963.69;5136089;27;1043;-49
2022/03/03 12:50:33;;;;;;;;;;;;;;;6.49;42.54;94964.25;5133939;27;1851;-49
2022/03/03 12:53:10;;;;;;;;;;;;;;;6.54;42.62;94962.00;5115070;28;1059;-49
2022/03/03 12:55:36;;;;;;;;;;;;;;;6.59;42.60;94957.13;5114971;28;1925;-49
2022/03/03 12:58:03;;;;;;;;;;;;;;;6.66;42.24;94954.75;5115027;28;1028;-49
2022/03/03 13:00:34;;;;;;;;;;;;;;;6.89;41.68;94949.09;5115193;28;992;-49
2022/03/03 13:03:00;;;;;;;;;;;;;;;6.96;41.92;94955.50;5114925;28;965;-49
2022/03/03 13:05:29;;;;;;;;;;;;;;;7.19;42.04;94945.34;5115001;28;1029;-49
2022/03/03 13:07:55;;;;;;;;;;;;;;;7.55;41.25;94943.69;5114677;28;1150;-49
2022/03/03 13:10:21;;;;;;;;;;;;;;;7.76;40.52;94931.97;5114986;28;957;-48
2022/03/03 13:12:48;;;;;;;;;;;;;;;7.91;40.42;94943.78;5114777;28;1007;-49
2022/03/03 13:15:14;;;;;;;;;;;;;;;7.96;39.67;94935.31;5114724;28;1902;-49